sensor_id;sensor_type;location;lat;lon;timestamp;pressure;altitude;pressure_sealevel;temperature;humidity
16580;BME280;8402;51.466;6.806;2022-09-09T00:00:12;100533.84;;;19.13;77.11
16580;BME280;8402;51.466;6.806;2022-09-09T00:02:44;100534.22;;;19.12;77.23
16580;BME280;8402;51.466;6.806;2022-09-09T00:05:20;100538.13;;;19.11;77.42
16580;BME280;8402;51.466;6.806;2022-09-09T00:07:54;100536.22;;;19.15;77.62
16580;BME280;8402;51.466;6.806;2022-09-09T00:10:28;100528.75;;;19.15;77.37
16580;BME280;8402;51.466;6.806;2022-09-09T00:13:02;100525.56;;;19.13;77.17
16580;BME280;8402;51.466;6.806;2022-09-09T00:15:38;100535.06;;;19.16;77.23
16580;BME280;8402;51.466;6.806;2022-09-09T00:18:15;100535.06;;;19.16;77.29
16580;BME280;8402;51.466;6.806;2022-09-09T00:20:49;100540.13;;;19.14;77.42
16580;BME280;8402;51.466;6.806;2022-09-09T00:23:24;100549.97;;;19.15;77.45
16580;BME280;8402;51.466;6.806;2022-09-09T00:25:58;100550.72;;;19.12;77.82
16580;BME280;8402;51.466;6.806;2022-09-09T00:28:31;100540.88;;;19.11;77.92
16580;BME280;8402;51.466;6.806;2022-09-09T00:31:11;100536.59;;;19.13;77.58
16580;BME280;8402;51.466;6.806;2022-09-09T00:33:39;100538.16;;;19.14;77.38
16580;BME280;8402;51.466;6.806;2022-09-09T00:36:14;100542.06;;;19.10;77.87
16580;BME280;8402;51.466;6.806;2022-09-09T00:38:46;100533.81;;;19.10;77.56
16580;BME280;8402;51.466;6.806;2022-09-09T00:41:20;100532.22;;;19.09;77.80
16580;BME280;8402;51.466;6.806;2022-09-09T00:43:56;100528.72;;;19.12;77.48
16580;BME280;8402;51.466;6.806;2022-09-09T00:46:46;100531.06;;;19.13;78.04
16580;BME280;8402;51.466;6.806;2022-09-09T00:49:25;100528.78;;;19.19;77.29
16580;BME280;8402;51.466;6.806;2022-09-09T00:52:07;100528.78;;;19.19;77.42
16580;BME280;8402;51.466;6.806;2022-09-09T00:54:46;100533.91;;;19.20;77.38
16580;BME280;8402;51.466;6.806;2022-09-09T00:57:25;100538.63;;;19.20;77.35
16580;BME280;8402;51.466;6.806;2022-09-09T01:02:51;100538.22;;;19.18;77.33
16580;BME280;8402;51.466;6.806;2022-09-09T01:05:24;100542.50;;;19.15;77.30
16580;BME280;8402;51.466;6.806;2022-09-09T01:07:58;100544.81;;;19.10;77.68
16580;BME280;8402;51.466;6.806;2022-09-09T01:10:37;100538.84;;;19.04;77.11
16580;BME280;8402;51.466;6.806;2022-09-09T01:13:13;100533.31;;;19.01;77.48
16580;BME280;8402;51.466;6.806;2022-09-09T01:15:44;100531.63;;;18.92;78.00
16580;BME280;8402;51.466;6.806;2022-09-09T01:18:17;100526.50;;;18.87;77.88
16580;BME280;8402;51.466;6.806;2022-09-09T01:20:51;100527.66;;;18.86;78.23
16580;BME280;8402;51.466;6.806;2022-09-09T01:26:28;100517.28;;;18.73;77.92
16580;BME280;8402;51.466;6.806;2022-09-09T01:28:57;100515.66;;;18.68;78.47
16580;BME280;8402;51.466;6.806;2022-09-09T01:31:28;100518.69;;;18.63;78.32
16580;BME280;8402;51.466;6.806;2022-09-09T01:33:57;100512.69;;;18.54;78.58
16580;BME280;8402;51.466;6.806;2022-09-09T01:36:29;100511.03;;;18.46;79.28
16580;BME280;8402;51.466;6.806;2022-09-09T01:39:00;100507.44;;;18.41;79.18
16580;BME280;8402;51.466;6.806;2022-09-09T01:41:30;100508.66;;;18.44;79.26
16580;BME280;8402;51.466;6.806;2022-09-09T01:43:58;100503.50;;;18.42;79.22
16580;BME280;8402;51.466;6.806;2022-09-09T01:46:27;100499.19;;;18.41;78.85
16580;BME280;8402;51.466;6.806;2022-09-09T01:48:57;100516.84;;;18.40;79.04
16580;BME280;8402;51.466;6.806;2022-09-09T01:51:26;100506.94;;;18.36;79.01
16580;BME280;8402;51.466;6.806;2022-09-09T01:53:54;100507.78;;;18.36;79.08
16580;BME280;8402;51.466;6.806;2022-09-09T01:56:32;100507.34;;;18.34;79.17
16580;BME280;8402;51.466;6.806;2022-09-09T01:59:25;100510.34;;;18.26;79.82
16580;BME280;8402;51.466;6.806;2022-09-09T02:02:09;100506.34;;;18.20;79.76
16580;BME280;8402;51.466;6.806;2022-09-09T02:04:40;100505.53;;;18.15;79.95
16580;BME280;8402;51.466;6.806;2022-09-09T02:07:19;100507.78;;;18.10;80.72
16580;BME280;8402;51.466;6.806;2022-09-09T02:09:54;100501.44;;;18.06;80.71
16580;BME280;8402;51.466;6.806;2022-09-09T02:12:27;100509.75;;;18.09;80.73
16580;BME280;8402;51.466;6.806;2022-09-09T02:15:01;100510.94;;;18.12;81.13
16580;BME280;8402;51.466;6.806;2022-09-09T02:17:36;100513.38;;;18.17;81.16
16580;BME280;8402;51.466;6.806;2022-09-09T02:20:08;100510.31;;;18.22;80.88
16580;BME280;8402;51.466;6.806;2022-09-09T02:22:37;100518.91;;;18.21;81.64
16580;BME280;8402;51.466;6.806;2022-09-09T02:25:08;100516.53;;;18.19;81.48
16580;BME280;8402;51.466;6.806;2022-09-09T02:27:40;100506.72;;;18.18;81.69
16580;BME280;8402;51.466;6.806;2022-09-09T02:30:11;100509.47;;;18.18;81.49
16580;BME280;8402;51.466;6.806;2022-09-09T02:32:41;100507.09;;;18.17;82.13
16580;BME280;8402;51.466;6.806;2022-09-09T02:35:12;100512.22;;;18.18;82.30
16580;BME280;8402;51.466;6.806;2022-09-09T02:37:42;100501.22;;;18.18;82.77
16580;BME280;8402;51.466;6.806;2022-09-09T02:40:13;100509.88;;;18.20;82.85
16580;BME280;8402;51.466;6.806;2022-09-09T02:42:46;100506.41;;;18.23;82.09
16580;BME280;8402;51.466;6.806;2022-09-09T02:45:17;100512.41;;;18.32;82.25
16580;BME280;8402;51.466;6.806;2022-09-09T02:47:50;100509.56;;;18.25;82.42
16580;BME280;8402;51.466;6.806;2022-09-09T02:50:25;100505.25;;;18.24;82.53
16580;BME280;8402;51.466;6.806;2022-09-09T02:53:02;100511.06;;;18.19;83.00
16580;BME280;8402;51.466;6.806;2022-09-09T02:55:38;100501.66;;;18.20;82.67
16580;BME280;8402;51.466;6.806;2022-09-09T02:58:09;100511.91;;;18.23;82.59
16580;BME280;8402;51.466;6.806;2022-09-09T03:00:39;100506.06;;;18.28;82.16
16580;BME280;8402;51.466;6.806;2022-09-09T03:03:08;100505.25;;;18.24;82.32
16580;BME280;8402;51.466;6.806;2022-09-09T03:05:36;100511.00;;;18.15;82.13
16580;BME280;8402;51.466;6.806;2022-09-09T03:08:05;100507.03;;;18.13;82.93
16580;BME280;8402;51.466;6.806;2022-09-09T03:10:33;100506.22;;;18.09;82.65
16580;BME280;8402;51.466;6.806;2022-09-09T03:13:01;100500.34;;;18.10;82.77
16580;BME280;8402;51.466;6.806;2022-09-09T03:15:33;100497.19;;;18.08;82.61
16580;BME280;8402;51.466;6.806;2022-09-09T03:18:01;100496.72;;;18.03;82.49
16580;BME280;8402;51.466;6.806;2022-09-09T03:20:30;100506.03;;;17.98;82.62
16580;BME280;8402;51.466;6.806;2022-09-09T03:22:59;100500.50;;;17.95;82.76
16580;BME280;8402;51.466;6.806;2022-09-09T03:25:28;100500.50;;;17.95;82.68
16580;BME280;8402;51.466;6.806;2022-09-09T03:27:56;100501.59;;;17.90;83.07
16580;BME280;8402;51.466;6.806;2022-09-09T03:30:25;100497.66;;;17.87;82.94
16580;BME280;8402;51.466;6.806;2022-09-09T03:32:55;100500.41;;;17.87;83.06
16580;BME280;8402;51.466;6.806;2022-09-09T03:35:23;100494.16;;;17.91;83.02
16580;BME280;8402;51.466;6.806;2022-09-09T03:37:51;100498.06;;;17.90;83.29
16580;BME280;8402;51.466;6.806;2022-09-09T03:40:20;100497.75;;;17.95;83.12
16580;BME280;8402;51.466;6.806;2022-09-09T03:42:48;100489.53;;;17.95;82.78
16580;BME280;8402;51.466;6.806;2022-09-09T03:45:16;100493.44;;;17.94;83.17
16580;BME280;8402;51.466;6.806;2022-09-09T03:47:44;100493.75;;;17.88;83.01
16580;BME280;8402;51.466;6.806;2022-09-09T03:50:13;100495.31;;;17.90;83.10
16580;BME280;8402;51.466;6.806;2022-09-09T03:52:41;100490.91;;;17.81;83.62
16580;BME280;8402;51.466;6.806;2022-09-09T03:55:10;100492.44;;;17.79;83.84
16580;BME280;8402;51.466;6.806;2022-09-09T03:57:37;100500.19;;;17.73;83.56
16580;BME280;8402;51.466;6.806;2022-09-09T04:00:07;100500.88;;;17.70;84.25
16580;BME280;8402;51.466;6.806;2022-09-09T04:02:36;100494.69;;;17.73;83.88
16580;BME280;8402;51.466;6.806;2022-09-09T04:05:04;100488.47;;;17.76;84.08
16580;BME280;8402;51.466;6.806;2022-09-09T04:07:34;100491.19;;;17.76;83.75
16580;BME280;8402;51.466;6.806;2022-09-09T04:10:02;100491.84;;;17.70;84.38
16580;BME280;8402;51.466;6.806;2022-09-09T04:12:30;100484.41;;;17.70;84.56
16580;BME280;8402;51.466;6.806;2022-09-09T04:14:58;100497.09;;;17.78;84.78
16580;BME280;8402;51.466;6.806;2022-09-09T04:17:27;100494.06;;;17.83;84.42
16580;BME280;8402;51.466;6.806;2022-09-09T04:19:55;100493.69;;;17.85;84.31
16580;BME280;8402;51.466;6.806;2022-09-09T04:22:23;100496.44;;;17.85;84.40
16580;BME280;8402;51.466;6.806;2022-09-09T04:24:52;100487.84;;;17.86;84.69
16580;BME280;8402;51.466;6.806;2022-09-09T04:27:20;100492.59;;;17.90;84.57
16580;BME280;8402;51.466;6.806;2022-09-09T04:29:48;100493.78;;;17.92;84.75
16580;BME280;8402;51.466;6.806;2022-09-09T04:32:16;100490.34;;;17.99;84.06
16580;BME280;8402;51.466;6.806;2022-09-09T04:34:44;100492.78;;;18.04;83.90
16580;BME280;8402;51.466;6.806;2022-09-09T04:37:14;100496.75;;;18.06;84.16
16580;BME280;8402;51.466;6.806;2022-09-09T04:39:42;100492.00;;;18.03;84.11
16580;BME280;8402;51.466;6.806;2022-09-09T04:42:13;100495.53;;;18.04;84.37
16580;BME280;8402;51.466;6.806;2022-09-09T04:44:41;100495.94;;;18.06;84.69
16580;BME280;8402;51.466;6.806;2022-09-09T04:47:09;100494.44;;;18.08;84.11
16580;BME280;8402;51.466;6.806;2022-09-09T04:49:37;100492.09;;;18.10;84.98
16580;BME280;8402;51.466;6.806;2022-09-09T04:52:05;100494.38;;;18.05;84.26
16580;BME280;8402;51.466;6.806;2022-09-09T04:54:33;100499.88;;;18.05;84.57
16580;BME280;8402;51.466;6.806;2022-09-09T04:57:01;100492.38;;;18.02;84.53
16580;BME280;8402;51.466;6.806;2022-09-09T04:59:30;100499.38;;;17.99;84.68
16580;BME280;8402;51.466;6.806;2022-09-09T05:01:58;100507.63;;;17.99;84.65
16580;BME280;8402;51.466;6.806;2022-09-09T05:04:27;100497.44;;;18.00;84.88
16580;BME280;8402;51.466;6.806;2022-09-09T05:06:56;100500.63;;;18.02;84.48
16580;BME280;8402;51.466;6.806;2022-09-09T05:09:24;100495.53;;;18.04;84.50
16580;BME280;8402;51.466;6.806;2022-09-09T05:11:51;100502.19;;;18.03;84.46
16580;BME280;8402;51.466;6.806;2022-09-09T05:14:19;100497.13;;;18.05;84.43
16580;BME280;8402;51.466;6.806;2022-09-09T05:16:48;100495.91;;;18.02;84.36
16580;BME280;8402;51.466;6.806;2022-09-09T05:19:17;100492.31;;;17.98;84.60
16580;BME280;8402;51.466;6.806;2022-09-09T05:21:46;100489.47;;;17.91;84.95
16580;BME280;8402;51.466;6.806;2022-09-09T05:24:14;100496.50;;;17.88;85.26
16580;BME280;8402;51.466;6.806;2022-09-09T05:26:42;100487.84;;;17.86;85.47
16580;BME280;8402;51.466;6.806;2022-09-09T05:29:10;100482.34;;;17.86;85.25
16580;BME280;8402;51.466;6.806;2022-09-09T05:31:38;100491.38;;;17.87;84.97
16580;BME280;8402;51.466;6.806;2022-09-09T05:34:09;100483.94;;;17.87;85.21
16580;BME280;8402;51.466;6.806;2022-09-09T05:36:37;100482.34;;;17.86;85.13
16580;BME280;8402;51.466;6.806;2022-09-09T05:39:05;100480.03;;;17.88;85.01
16580;BME280;8402;51.466;6.806;2022-09-09T05:41:33;100482.41;;;17.90;85.49
16580;BME280;8402;51.466;6.806;2022-09-09T05:44:02;100482.34;;;17.86;85.79
16580;BME280;8402;51.466;6.806;2022-09-09T05:46:30;100484.66;;;17.84;85.76
16580;BME280;8402;51.466;6.806;2022-09-09T05:48:58;100484.25;;;17.82;85.60
16580;BME280;8402;51.466;6.806;2022-09-09T05:51:28;100486.13;;;17.78;86.06
16580;BME280;8402;51.466;6.806;2022-09-09T05:53:57;100483.38;;;17.78;86.06
16580;BME280;8402;51.466;6.806;2022-09-09T05:56:27;100488.56;;;17.83;85.83
16580;BME280;8402;51.466;6.806;2022-09-09T05:58:56;100485.09;;;17.86;86.02
16580;BME280;8402;51.466;6.806;2022-09-09T06:01:25;100485.09;;;17.86;86.33
16580;BME280;8402;51.466;6.806;2022-09-09T06:03:54;100487.06;;;17.86;86.60
16580;BME280;8402;51.466;6.806;2022-09-09T06:06:24;100495.63;;;17.84;87.07
16580;BME280;8402;51.466;6.806;2022-09-09T06:08:55;100499.53;;;17.83;87.03
16580;BME280;8402;51.466;6.806;2022-09-09T06:11:25;100491.72;;;17.85;87.35
16580;BME280;8402;51.466;6.806;2022-09-09T06:13:53;100495.63;;;17.84;87.32
16580;BME280;8402;51.466;6.806;2022-09-09T06:16:24;100487.47;;;17.88;87.46
16580;BME280;8402;51.466;6.806;2022-09-09T06:18:53;100490.25;;;17.92;87.41
16580;BME280;8402;51.466;6.806;2022-09-09T06:21:24;100495.03;;;17.95;87.66
16580;BME280;8402;51.466;6.806;2022-09-09T06:23:54;100500.56;;;17.98;87.67
16580;BME280;8402;51.466;6.806;2022-09-09T06:26:27;100498.69;;;18.06;87.18
16580;BME280;8402;51.466;6.806;2022-09-09T06:28:57;100499.25;;;18.15;87.40
16580;BME280;8402;51.466;6.806;2022-09-09T06:31:27;100501.66;;;18.20;87.22
16580;BME280;8402;51.466;6.806;2022-09-09T06:33:58;100499.00;;;18.27;87.08
16580;BME280;8402;51.466;6.806;2022-09-09T06:36:27;100496.41;;;18.38;86.79
16580;BME280;8402;51.466;6.806;2022-09-09T06:38:58;100496.59;;;18.52;86.70
16580;BME280;8402;51.466;6.806;2022-09-09T06:41:29;100499.03;;;18.61;86.29
16580;BME280;8402;51.466;6.806;2022-09-09T06:43:57;100507.41;;;18.68;86.25
16580;BME280;8402;51.466;6.806;2022-09-09T06:46:26;100504.28;;;18.69;86.26
16580;BME280;8402;51.466;6.806;2022-09-09T06:48:56;100511.03;;;18.76;85.99
16580;BME280;8402;51.466;6.806;2022-09-09T06:51:27;100510.31;;;18.82;86.16
16580;BME280;8402;51.466;6.806;2022-09-09T06:53:59;100513.84;;;18.83;85.77
16580;BME280;8402;51.466;6.806;2022-09-09T06:56:30;100515.06;;;18.85;86.03
16580;BME280;8402;51.466;6.806;2022-09-09T06:59:00;100518.97;;;18.84;85.66
16580;BME280;8402;51.466;6.806;2022-09-09T07:01:32;100510.28;;;18.79;85.54
16580;BME280;8402;51.466;6.806;2022-09-09T07:04:00;100508.66;;;18.74;85.82
16580;BME280;8402;51.466;6.806;2022-09-09T07:06:30;100514.97;;;18.78;85.84
16580;BME280;8402;51.466;6.806;2022-09-09T07:09:02;100515.06;;;18.85;85.85
16580;BME280;8402;51.466;6.806;2022-09-09T07:11:32;100515.13;;;18.89;86.32
16580;BME280;8402;51.466;6.806;2022-09-09T07:14:01;100521.41;;;18.89;85.80
16580;BME280;8402;51.466;6.806;2022-09-09T07:16:28;100523.31;;;18.85;84.71
16580;BME280;8402;51.466;6.806;2022-09-09T07:18:58;100519.75;;;18.81;84.71
16580;BME280;8402;51.466;6.806;2022-09-09T07:21:29;100523.38;;;18.92;84.64
16580;BME280;8402;51.466;6.806;2022-09-09T07:23:57;100519.72;;;19.15;84.40
16580;BME280;8402;51.466;6.806;2022-09-09T07:26:28;100528.31;;;19.50;84.40
16580;BME280;8402;51.466;6.806;2022-09-09T07:28:56;100523.63;;;19.55;83.34
16580;BME280;8402;51.466;6.806;2022-09-09T07:31:26;100529.13;;;19.55;82.65
16580;BME280;8402;51.466;6.806;2022-09-09T07:33:54;100531.47;;;19.52;82.11
16580;BME280;8402;51.466;6.806;2022-09-09T07:36:23;100538.19;;;19.55;81.81
16580;BME280;8402;51.466;6.806;2022-09-09T07:39:00;100529.72;;;19.74;81.92
16580;BME280;8402;51.466;6.806;2022-09-09T07:41:31;100523.19;;;19.97;80.13
16580;BME280;8402;51.466;6.806;2022-09-09T07:44:05;100529.91;;;19.99;79.61
16580;BME280;8402;51.466;6.806;2022-09-09T07:46:33;100540.19;;;20.06;79.33
16580;BME280;8402;51.466;6.806;2022-09-09T07:49:02;100523.69;;;20.13;79.55
16580;BME280;8402;51.466;6.806;2022-09-09T07:51:31;100543.06;;;20.27;77.36
16580;BME280;8402;51.466;6.806;2022-09-09T07:54:01;100544.59;;;20.18;75.83
16580;BME280;8402;51.466;6.806;2022-09-09T07:56:31;100539.47;;;20.20;76.97
16580;BME280;8402;51.466;6.806;2022-09-09T07:59:00;100551.34;;;20.27;77.02
16580;BME280;8402;51.466;6.806;2022-09-09T08:01:30;100541.28;;;20.56;75.37
16580;BME280;8402;51.466;6.806;2022-09-09T08:04:00;100540.63;;;20.84;74.69
16580;BME280;8402;51.466;6.806;2022-09-09T08:06:30;100546.66;;;21.15;73.93
16580;BME280;8402;51.466;6.806;2022-09-09T08:08:59;100536.47;;;21.44;72.87
16580;BME280;8402;51.466;6.806;2022-09-09T08:11:28;100549.88;;;21.70;70.34
16580;BME280;8402;51.466;6.806;2022-09-09T08:14:05;100550.28;;;21.76;68.83
16580;BME280;8402;51.466;6.806;2022-09-09T08:16:35;100547.53;;;21.58;67.85
16580;BME280;8402;51.466;6.806;2022-09-09T08:19:04;100544.34;;;21.63;68.77
16580;BME280;8402;51.466;6.806;2022-09-09T08:21:35;100546.75;;;21.86;68.63
16580;BME280;8402;51.466;6.806;2022-09-09T08:24:05;100542.38;;;21.96;68.45
16580;BME280;8402;51.466;6.806;2022-09-09T08:26:35;100544.34;;;22.03;67.48
16580;BME280;8402;51.466;6.806;2022-09-09T08:29:09;100551.47;;;22.18;66.04
16580;BME280;8402;51.466;6.806;2022-09-09T08:31:39;100548.31;;;22.19;66.55
16580;BME280;8402;51.466;6.806;2022-09-09T08:34:09;100553.03;;;22.30;67.29
16580;BME280;8402;51.466;6.806;2022-09-09T08:36:39;100545.53;;;22.27;66.59
16580;BME280;8402;51.466;6.806;2022-09-09T08:39:10;100551.44;;;22.21;65.45
16580;BME280;8402;51.466;6.806;2022-09-09T08:41:52;100554.59;;;22.38;64.50
16580;BME280;8402;51.466;6.806;2022-09-09T08:44:35;100554.09;;;22.64;63.35
16580;BME280;8402;51.466;6.806;2022-09-09T08:47:13;100548.09;;;22.84;62.98
16580;BME280;8402;51.466;6.806;2022-09-09T08:49:56;100542.88;;;23.07;63.10
16580;BME280;8402;51.466;6.806;2022-09-09T08:52:29;100546.41;;;23.11;61.10
16580;BME280;8402;51.466;6.806;2022-09-09T08:55:05;100544.50;;;23.01;60.78
16580;BME280;8402;51.466;6.806;2022-09-09T08:57:39;100547.19;;;23.12;62.64
16580;BME280;8402;51.466;6.806;2022-09-09T09:00:10;100539.94;;;23.35;61.79
16580;BME280;8402;51.466;6.806;2022-09-09T09:02:42;100543.88;;;23.34;60.41
16580;BME280;8402;51.466;6.806;2022-09-09T09:05:19;100547.84;;;23.37;59.39
16580;BME280;8402;51.466;6.806;2022-09-09T09:08:00;100550.31;;;23.21;59.09
16580;BME280;8402;51.466;6.806;2022-09-09T09:10:39;100540.13;;;23.00;59.20
16580;BME280;8402;51.466;6.806;2022-09-09T09:13:14;100550.09;;;22.83;59.53
16580;BME280;8402;51.466;6.806;2022-09-09T09:15:48;100553.69;;;22.73;60.91
16580;BME280;8402;51.466;6.806;2022-09-09T09:18:17;100558.50;;;22.58;60.22
16580;BME280;8402;51.466;6.806;2022-09-09T09:20:50;100554.56;;;22.52;61.23
16580;BME280;8402;51.466;6.806;2022-09-09T09:23:22;100554.56;;;22.52;61.57
16580;BME280;8402;51.466;6.806;2022-09-09T09:25:54;100556.13;;;22.49;61.52
16580;BME280;8402;51.466;6.806;2022-09-09T09:28:25;100560.88;;;22.49;61.68
16580;BME280;8402;51.466;6.806;2022-09-09T09:31:01;100565.19;;;22.57;61.24
16580;BME280;8402;51.466;6.806;2022-09-09T09:33:36;100566.38;;;22.60;61.12
16580;BME280;8402;51.466;6.806;2022-09-09T09:36:07;100563.63;;;22.52;60.71
16580;BME280;8402;51.466;6.806;2022-09-09T09:38:36;100564.00;;;22.55;60.80
16580;BME280;8402;51.466;6.806;2022-09-09T09:41:34;100563.25;;;22.50;60.68
16580;BME280;8402;51.466;6.806;2022-09-09T09:44:04;100560.13;;;22.38;60.59
16580;BME280;8402;51.466;6.806;2022-09-09T09:46:35;100572.78;;;22.32;60.80
16580;BME280;8402;51.466;6.806;2022-09-09T09:49:04;100572.78;;;22.32;61.06
16580;BME280;8402;51.466;6.806;2022-09-09T09:51:36;100559.31;;;22.34;61.29
16580;BME280;8402;51.466;6.806;2022-09-09T09:54:09;100564.03;;;22.47;60.77
16580;BME280;8402;51.466;6.806;2022-09-09T09:56:42;100570.34;;;22.55;60.39
16580;BME280;8402;51.466;6.806;2022-09-09T09:59:23;100567.97;;;22.53;59.42
16580;BME280;8402;51.466;6.806;2022-09-09T10:02:30;100564.03;;;22.51;60.23
16580;BME280;8402;51.466;6.806;2022-09-09T10:05:03;100562.78;;;22.73;59.31
16580;BME280;8402;51.466;6.806;2022-09-09T10:07:32;100561.59;;;22.74;58.46
16580;BME280;8402;51.466;6.806;2022-09-09T10:10:00;100565.50;;;22.88;59.20
16580;BME280;8402;51.466;6.806;2022-09-09T10:12:39;100563.13;;;22.90;58.55
16580;BME280;8402;51.466;6.806;2022-09-09T10:15:22;100561.56;;;22.89;57.00
16580;BME280;8402;51.466;6.806;2022-09-09T10:18:03;100559.88;;;23.09;56.67
16580;BME280;8402;51.466;6.806;2022-09-09T10:20:42;100554.72;;;23.11;57.57
16580;BME280;8402;51.466;6.806;2022-09-09T10:23:25;100551.09;;;23.21;57.96
16580;BME280;8402;51.466;6.806;2022-09-09T10:26:10;100552.69;;;23.19;57.41
16580;BME280;8402;51.466;6.806;2022-09-09T10:28:57;100546.81;;;23.10;56.06
16580;BME280;8402;51.466;6.806;2022-09-09T10:31:34;100553.94;;;23.07;56.46
16580;BME280;8402;51.466;6.806;2022-09-09T10:34:24;100552.84;;;22.94;56.19
16580;BME280;8402;51.466;6.806;2022-09-09T10:36:59;100548.88;;;22.95;57.47
16580;BME280;8402;51.466;6.806;2022-09-09T10:39:34;100549.66;;;22.92;57.02
16580;BME280;8402;51.466;6.806;2022-09-09T10:42:09;100546.16;;;22.88;57.65
16580;BME280;8402;51.466;6.806;2022-09-09T10:44:52;100545.00;;;22.74;57.25
16580;BME280;8402;51.466;6.806;2022-09-09T10:47:44;100545.84;;;22.61;57.61
16580;BME280;8402;51.466;6.806;2022-09-09T10:50:30;100541.91;;;22.55;56.90
16580;BME280;8402;51.466;6.806;2022-09-09T10:53:28;100541.94;;;22.44;57.61
16580;BME280;8402;51.466;6.806;2022-09-09T10:56:03;100547.44;;;22.51;58.04
16580;BME280;8402;51.466;6.806;2022-09-09T10:58:37;100539.53;;;22.49;57.71
16580;BME280;8402;51.466;6.806;2022-09-09T11:01:15;100539.56;;;22.46;56.55
16580;BME280;8402;51.466;6.806;2022-09-09T11:03:48;100539.53;;;22.53;57.29
16580;BME280;8402;51.466;6.806;2022-09-09T11:06:23;100528.50;;;22.46;56.71
16580;BME280;8402;51.466;6.806;2022-09-09T11:08:57;100532.41;;;22.56;57.22
16580;BME280;8402;51.466;6.806;2022-09-09T11:11:29;100526.03;;;22.69;57.49
16580;BME280;8402;51.466;6.806;2022-09-09T11:14:03;100525.59;;;22.82;57.82
16580;BME280;8402;51.466;6.806;2022-09-09T11:16:39;100522.00;;;22.85;57.04
16580;BME280;8402;51.466;6.806;2022-09-09T11:19:15;100524.47;;;22.68;56.42
16580;BME280;8402;51.466;6.806;2022-09-09T11:21:47;100529.22;;;22.64;57.11
16580;BME280;8402;51.466;6.806;2022-09-09T11:24:21;100533.59;;;22.58;57.55
16580;BME280;8402;51.466;6.806;2022-09-09T11:26:53;100526.84;;;22.63;57.57
16580;BME280;8402;51.466;6.806;2022-09-09T11:29:47;100522.91;;;22.57;58.07
16580;BME280;8402;51.466;6.806;2022-09-09T11:32:39;100530.06;;;22.58;56.93
16580;BME280;8402;51.466;6.806;2022-09-09T11:35:25;100520.13;;;22.67;57.96
16580;BME280;8402;51.466;6.806;2022-09-09T11:38:16;100509.47;;;22.62;57.05
16580;BME280;8402;51.466;6.806;2022-09-09T11:40:46;100519.75;;;22.65;57.73
16580;BME280;8402;51.466;6.806;2022-09-09T11:43:24;100519.28;;;22.77;57.96
16580;BME280;8402;51.466;6.806;2022-09-09T11:45:54;100513.72;;;22.85;57.79
16580;BME280;8402;51.466;6.806;2022-09-09T11:48:31;100519.69;;;22.87;57.13
16580;BME280;8402;51.466;6.806;2022-09-09T11:51:04;100519.66;;;22.94;56.86
16580;BME280;8402;51.466;6.806;2022-09-09T11:53:49;100521.22;;;22.84;57.00
16580;BME280;8402;51.466;6.806;2022-09-09T11:56:26;100521.25;;;22.80;57.03
16580;BME280;8402;51.466;6.806;2022-09-09T11:58:57;100519.28;;;22.81;57.45
16580;BME280;8402;51.466;6.806;2022-09-09T12:01:35;100510.97;;;22.81;57.30
16580;BME280;8402;51.466;6.806;2022-09-09T12:04:16;100519.72;;;22.72;55.94
16580;BME280;8402;51.466;6.806;2022-09-09T12:06:51;100517.28;;;22.89;56.76
16580;BME280;8402;51.466;6.806;2022-09-09T12:09:29;100514.09;;;22.94;56.05
16580;BME280;8402;51.466;6.806;2022-09-09T12:12:06;100514.09;;;22.94;56.22
16580;BME280;8402;51.466;6.806;2022-09-09T12:14:36;100525.97;;;22.91;56.09
16580;BME280;8402;51.466;6.806;2022-09-09T12:17:10;100520.47;;;22.76;56.25
16580;BME280;8402;51.466;6.806;2022-09-09T12:19:46;100523.66;;;22.71;56.60
16580;BME280;8402;51.466;6.806;2022-09-09T12:22:21;100519.75;;;22.65;56.96
16580;BME280;8402;51.466;6.806;2022-09-09T12:25:01;100524.47;;;22.68;57.37
16580;BME280;8402;51.466;6.806;2022-09-09T12:27:40;100529.19;;;22.71;57.32
16580;BME280;8402;51.466;6.806;2022-09-09T12:30:14;100533.09;;;22.77;57.11
16580;BME280;8402;51.466;6.806;2022-09-09T12:32:42;100543.75;;;22.90;57.56
16580;BME280;8402;51.466;6.806;2022-09-09T12:35:12;100523.59;;;22.89;57.32
16580;BME280;8402;51.466;6.806;2022-09-09T12:37:49;100552.88;;;22.79;56.89
16580;BME280;8402;51.466;6.806;2022-09-09T12:40:23;100563.22;;;22.61;59.62
16580;BME280;8402;51.466;6.806;2022-09-09T12:42:51;100557.72;;;22.47;62.56
16580;BME280;8402;51.466;6.806;2022-09-09T12:45:23;100547.50;;;22.37;63.99
16580;BME280;8402;51.466;6.806;2022-09-09T12:47:54;100553.81;;;22.34;64.52
16580;BME280;8402;51.466;6.806;2022-09-09T12:50:25;100545.13;;;22.24;65.62
16580;BME280;8402;51.466;6.806;2022-09-09T12:52:56;100564.09;;;22.22;65.58
16580;BME280;8402;51.466;6.806;2022-09-09T12:55:30;100559.38;;;22.12;66.61
16580;BME280;8402;51.466;6.806;2022-09-09T12:58:00;100570.41;;;22.02;67.21
16580;BME280;8402;51.466;6.806;2022-09-09T13:00:31;100556.19;;;21.92;68.55
16580;BME280;8402;51.466;6.806;2022-09-09T13:03:01;100555.41;;;21.85;69.29
16580;BME280;8402;51.466;6.806;2022-09-09T13:05:35;100558.59;;;21.73;70.05
16580;BME280;8402;51.466;6.806;2022-09-09T13:08:05;100571.97;;;21.70;69.92
16580;BME280;8402;51.466;6.806;2022-09-09T13:10:39;100575.13;;;21.62;70.50
16580;BME280;8402;51.466;6.806;2022-09-09T13:13:22;100561.72;;;21.46;72.13
16580;BME280;8402;51.466;6.806;2022-09-09T13:15:52;100544.28;;;21.24;72.20
16580;BME280;8402;51.466;6.806;2022-09-09T13:18:22;100549.78;;;21.13;72.58
16580;BME280;8402;51.466;6.806;2022-09-09T13:20:51;100542.66;;;21.05;74.21
16580;BME280;8402;51.466;6.806;2022-09-09T13:23:20;100539.91;;;21.05;74.24
16580;BME280;8402;51.466;6.806;2022-09-09T13:25:58;100539.53;;;21.17;75.19
16580;BME280;8402;51.466;6.806;2022-09-09T13:28:28;100532.09;;;21.29;75.80
16580;BME280;8402;51.466;6.806;2022-09-09T13:31:01;100525.03;;;21.46;76.07
16580;BME280;8402;51.466;6.806;2022-09-09T13:33:32;100522.25;;;21.49;76.30